Time;durP1;ratioP1;P1;durP2;ratioP2;P2;SDS_P1;SDS_P2;PMS_P1;PMS_P2;Temp;Humidity;BMP_temperature;BMP_pressure;BME280_temperature;BME280_humidity;BME280_pressure;Samples;Min_cycle;Max_cycle;Signal;HPM_P1;HPM_P2
2021/01/27 00:02:17;;;;;;;15.60;7.88;;;0.80;99.90;;;;;;4991451;28;20038;-61
2021/01/27 00:04:43;;;;;;;16.35;7.40;;;0.70;99.90;;;;;;4991063;28;20023;-59
2021/01/27 00:07:08;;;;;;;10.38;6.72;;;0.70;99.90;;;;;;4987982;28;20030;-59
2021/01/27 00:09:34;;;;;;;9.13;6.82;;;0.70;99.90;;;;;;4989398;28;20034;-63
2021/01/27 00:11:59;;;;;;;13.45;6.00;;;0.70;99.90;;;;;;4995750;28;20104;-62
2021/01/27 00:14:25;;;;;;;13.93;6.20;;;0.60;99.90;;;;;;4998149;28;20116;-62
2021/01/27 00:16:51;;;;;;;11.63;7.15;;;0.60;99.90;;;;;;4991580;28;20033;-59
2021/01/27 00:19:17;;;;;;;10.30;6.65;;;0.60;99.90;;;;;;4990454;28;20065;-63
2021/01/27 00:21:42;;;;;;;14.23;6.32;;;0.50;99.90;;;;;;4990732;28;20501;-62
2021/01/27 00:24:08;;;;;;;13.82;6.57;;;0.50;99.90;;;;;;4997877;28;20038;-62
2021/01/27 00:26:34;;;;;;;11.73;6.55;;;0.50;99.90;;;;;;4990373;28;20033;-61
2021/01/27 00:28:59;;;;;;;11.80;6.25;;;0.40;99.90;;;;;;4994079;28;20117;-59
2021/01/27 00:31:25;;;;;;;11.35;6.63;;;0.40;99.90;;;;;;4991684;28;20037;-61
2021/01/27 00:33:51;;;;;;;12.63;6.20;;;0.50;99.90;;;;;;4991194;28;20038;-62
2021/01/27 00:36:17;;;;;;;12.43;6.07;;;0.60;99.90;;;;;;4996096;28;20022;-61
2021/01/27 00:38:43;;;;;;;15.00;6.10;;;0.50;99.90;;;;;;4993263;28;20483;-62
2021/01/27 00:41:09;;;;;;;12.43;6.22;;;0.50;99.90;;;;;;4994045;28;20064;-62
2021/01/27 00:43:35;;;;;;;10.02;6.85;;;0.50;99.90;;;;;;4982492;28;20034;-60
2021/01/27 00:46:00;;;;;;;11.48;6.40;;;0.50;99.90;;;;;;4989249;28;20030;-62
2021/01/27 00:48:26;;;;;;;12.55;7.10;;;0.50;99.90;;;;;;4989295;28;20114;-62
2021/01/27 00:50:52;;;;;;;11.90;6.78;;;0.40;99.90;;;;;;4990916;28;20041;-60
2021/01/27 00:53:18;;;;;;;11.05;6.82;;;0.40;99.90;;;;;;4993936;28;20375;-61
2021/01/27 00:55:43;;;;;;;12.35;7.47;;;0.40;99.90;;;;;;4963475;28;20039;-63
2021/01/27 00:58:09;;;;;;;10.20;7.15;;;0.30;99.90;;;;;;4989817;28;20042;-62
2021/01/27 01:00:40;;;;;;;16.50;7.80;;;0.40;99.90;;;;;;4983160;28;20034;-60
2021/01/27 01:03:08;;;;;;;13.77;7.82;;;0.40;99.90;;;;;;4983579;28;20671;-62
2021/01/27 01:05:37;;;;;;;11.90;7.30;;;0.30;99.90;;;;;;4988864;28;20111;-57
2021/01/27 01:08:03;;;;;;;12.65;7.50;;;0.30;99.90;;;;;;4984154;28;20121;-60
2021/01/27 01:10:32;;;;;;;15.20;7.80;;;0.30;99.90;;;;;;4984842;28;20487;-59
2021/01/27 01:13:00;;;;;;;16.05;8.20;;;0.20;99.90;;;;;;4987761;28;20062;-60
2021/01/27 01:15:28;;;;;;;14.95;8.43;;;0.20;99.90;;;;;;4985103;28;20109;-59
2021/01/27 01:17:54;;;;;;;15.07;8.20;;;0.20;99.90;;;;;;4979011;28;20014;-61
2021/01/27 01:20:20;;;;;;;16.55;8.00;;;0.20;99.90;;;;;;4979902;28;20026;-56
2021/01/27 01:22:48;;;;;;;13.27;7.43;;;0.20;99.90;;;;;;4975279;28;20085;-59
2021/01/27 01:25:16;;;;;;;11.77;6.97;;;0.20;99.90;;;;;;4979916;28;20550;-58
2021/01/27 01:27:43;;;;;;;11.68;7.10;;;0.20;99.90;;;;;;4980904;28;20035;-60
2021/01/27 01:30:15;;;;;;;11.15;7.57;;;0.20;99.90;;;;;;4989193;28;20530;-62
2021/01/27 01:32:40;;;;;;;11.80;6.93;;;0.20;99.90;;;;;;4981215;28;20030;-61
2021/01/27 01:35:06;;;;;;;11.98;7.03;;;0.30;99.90;;;;;;4989200;28;20074;-57
2021/01/27 01:37:32;;;;;;;13.57;7.88;;;0.30;99.90;;;;;;4994976;28;20398;-60
2021/01/27 01:39:58;;;;;;;14.13;6.88;;;0.30;99.90;;;;;;4995781;28;20031;-60
2021/01/27 01:42:23;;;;;;;11.60;7.22;;;0.40;99.90;;;;;;4992595;28;20030;-59
2021/01/27 01:44:49;;;;;;;11.65;6.03;;;0.40;99.90;;;;;;4993151;28;20045;-62
2021/01/27 01:47:14;;;;;;;11.27;6.90;;;0.40;99.90;;;;;;4991752;28;20049;-62
2021/01/27 01:49:41;;;;;;;15.18;6.72;;;0.40;99.90;;;;;;4996644;28;20038;-60
2021/01/27 01:52:07;;;;;;;12.52;7.32;;;0.30;99.90;;;;;;4991474;28;21183;-60
2021/01/27 01:54:43;;;;;;;13.80;6.60;;;0.40;99.90;;;;;;4973763;28;20523;-62
2021/01/27 01:57:31;;;;;;;12.38;6.68;;;0.40;99.90;;;;;;4997241;28;20045;-62
2021/01/27 02:00:06;;;;;;;14.63;7.90;;;0.40;99.90;;;;;;4989676;28;20150;-60
2021/01/27 02:02:34;;;;;;;9.30;5.53;;;0.40;99.90;;;;;;4990917;28;20030;-60
2021/01/27 02:05:03;;;;;;;11.60;7.05;;;0.40;99.90;;;;;;4992193;28;20030;-60
2021/01/27 02:07:29;;;;;;;12.60;7.03;;;0.40;99.90;;;;;;4992075;28;20045;-58
2021/01/27 02:09:55;;;;;;;10.18;6.32;;;0.50;99.90;;;;;;4989141;28;20026;-61
2021/01/27 02:13:05;;;;;;;10.85;6.03;;;0.50;99.90;;;;;;4996995;28;20109;-61
2021/01/27 02:15:49;;;;;;;14.95;6.20;;;0.50;99.90;;;;;;4985256;28;20050;-56
2021/01/27 02:18:15;;;;;;;11.23;6.03;;;0.50;99.90;;;;;;5005612;28;20436;-60
2021/01/27 02:21:20;;;;;;;10.43;6.45;;;0.60;99.90;;;;;;4997577;28;20109;-62
2021/01/27 02:24:07;;;;;;;9.77;5.85;;;0.70;99.90;;;;;;4992385;28;20054;-60
2021/01/27 02:26:57;;;;;;;9.90;5.70;;;0.70;99.90;;;;;;4988801;28;20446;-60
2021/01/27 02:30:02;;;;;;;8.80;5.40;;;0.70;99.90;;;;;;4990397;28;20037;-62
2021/01/27 02:32:33;;;;;;;;;;;0.80;99.90;;;;;;4988695;28;20054;-55
2021/01/27 02:35:22;;;;;;;11.52;5.28;;;0.80;99.90;;;;;;4994158;28;20304;-59
2021/01/27 02:37:58;;;;;;;7.53;5.45;;;0.90;99.90;;;;;;5003369;28;20551;-56
2021/01/27 02:40:35;;;;;;;9.68;6.47;;;0.90;99.90;;;;;;4991059;28;20026;-59
2021/01/27 02:43:17;;;;;;;11.45;5.68;;;0.90;99.90;;;;;;4996252;28;20057;-60
2021/01/27 02:45:49;;;;;;;14.45;5.60;;;0.90;99.90;;;;;;4990324;28;20530;-59
2021/01/27 02:48:38;;;;;;;9.85;5.38;;;0.90;99.90;;;;;;5001094;28;20448;-60
2021/01/27 02:51:13;;;;;;;14.90;6.32;;;0.90;99.90;;;;;;4993557;28;20502;-59
2021/01/27 02:53:46;;;;;;;15.43;5.97;;;0.90;99.90;;;;;;4992614;28;20041;-58
2021/01/27 02:56:36;;;;;;;9.33;5.77;;;1.00;99.90;;;;;;4977395;28;20038;-60
2021/01/27 02:59:06;;;;;;;11.45;5.10;;;1.00;99.90;;;;;;4986505;28;20484;-60
2021/01/27 03:01:59;;;;;;;11.35;5.53;;;1.00;99.90;;;;;;4989286;28;20041;-63
2021/01/27 03:04:47;;;;;;;8.75;5.32;;;1.00;99.90;;;;;;4990905;28;20108;-61
2021/01/27 03:07:15;;;;;;;8.32;5.05;;;1.00;99.90;;;;;;4993598;28;20022;-60
2021/01/27 03:09:46;;;;;;;8.88;5.20;;;1.00;99.90;;;;;;4990143;28;20483;-62
2021/01/27 03:12:12;;;;;;;9.43;5.00;;;1.00;99.90;;;;;;4990871;28;20037;-60
2021/01/27 03:14:38;;;;;;;8.95;6.00;;;1.00;99.90;;;;;;4992043;28;20030;-59
2021/01/27 03:17:17;;;;;;;10.80;6.90;;;1.00;99.90;;;;;;4993275;28;20479;-60
2021/01/27 03:19:55;;;;;;;10.02;6.28;;;1.10;99.90;;;;;;4987274;28;20054;-60
2021/01/27 03:22:25;;;;;;;8.95;5.63;;;1.00;99.90;;;;;;4993455;28;20026;-62
2021/01/27 03:25:20;;;;;;;16.38;6.57;;;1.00;99.90;;;;;;4990974;28;20117;-62
2021/01/27 03:28:01;;;;;;;11.75;6.00;;;1.00;99.90;;;;;;4987191;28;20038;-61
2021/01/27 03:30:27;;;;;;;11.25;5.85;;;1.00;99.90;;;;;;4985843;28;20042;-60
2021/01/27 03:32:57;;;;;;;9.38;6.32;;;1.00;99.90;;;;;;5002590;28;20056;-60
2021/01/27 03:35:38;;;;;;;11.88;5.95;;;1.00;99.90;;;;;;4988518;28;20495;-59
2021/01/27 03:38:11;;;;;;;8.23;5.80;;;1.00;99.90;;;;;;4990159;28;20475;-62
2021/01/27 03:40:37;;;;;;;7.78;5.90;;;1.00;99.90;;;;;;4977789;28;20033;-59
2021/01/27 03:43:22;;;;;;;9.45;5.43;;;1.00;99.90;;;;;;4948910;28;20046;-62
2021/01/27 03:45:50;;;;;;;11.05;6.32;;;1.00;99.90;;;;;;4996413;28;20069;-61
2021/01/27 03:48:20;;;;;;;8.48;5.40;;;1.00;99.90;;;;;;4995093;28;20034;-60
2021/01/27 03:50:49;;;;;;;8.75;5.47;;;1.00;99.90;;;;;;5004080;28;20034;-61
2021/01/27 03:53:17;;;;;;;16.70;5.68;;;1.00;99.90;;;;;;4994126;28;20121;-60
2021/01/27 03:56:11;;;;;;;11.40;4.32;;;1.00;99.90;;;;;;4972845;28;20050;-59
2021/01/27 03:58:39;;;;;;;9.00;4.95;;;1.00;99.90;;;;;;4988380;28;20168;-62
2021/01/27 04:01:09;;;;;;;9.13;5.00;;;1.00;99.90;;;;;;4995458;28;20407;-61
2021/01/27 04:03:35;;;;;;;8.02;5.45;;;1.00;99.90;;;;;;4989910;28;20128;-60
2021/01/27 04:06:01;;;;;;;11.45;6.00;;;1.00;99.90;;;;;;4991135;28;20113;-59
2021/01/27 04:08:27;;;;;;;17.17;6.47;;;1.00;99.90;;;;;;4984658;28;20046;-60
2021/01/27 04:10:53;;;;;;;9.48;6.63;;;1.00;99.90;;;;;;4991126;28;20034;-61
2021/01/27 04:13:18;;;;;;;8.30;4.95;;;0.90;99.90;;;;;;4989960;28;20026;-61
2021/01/27 04:15:44;;;;;;;9.80;5.43;;;0.90;99.90;;;;;;4981975;28;20373;-62
2021/01/27 04:18:10;;;;;;;8.45;4.93;;;0.90;99.90;;;;;;4978993;28;20138;-60
2021/01/27 04:20:35;;;;;;;12.73;6.68;;;0.80;99.90;;;;;;4991297;28;20030;-61
2021/01/27 04:23:01;;;;;;;14.93;5.63;;;0.80;99.90;;;;;;4988027;28;20026;-61
2021/01/27 04:25:26;;;;;;;9.07;5.03;;;0.80;99.90;;;;;;4985177;28;20151;-59
2021/01/27 04:27:52;;;;;;;8.80;5.95;;;0.80;99.90;;;;;;4992910;28;20026;-60
2021/01/27 04:30:23;;;;;;;10.85;5.38;;;0.80;99.90;;;;;;4986388;28;20080;-60
2021/01/27 04:32:48;;;;;;;12.10;5.43;;;0.80;99.90;;;;;;4987771;28;20041;-65
2021/01/27 04:35:16;;;;;;;9.88;4.88;;;0.80;99.90;;;;;;4985775;28;20030;-61
2021/01/27 04:37:42;;;;;;;7.97;4.72;;;0.80;99.90;;;;;;4989276;28;20026;-64
2021/01/27 04:40:14;;;;;;;11.57;5.60;;;0.80;99.90;;;;;;4989446;28;20022;-62
2021/01/27 04:42:41;;;;;;;7.90;5.00;;;0.90;99.90;;;;;;4988303;28;20076;-62
2021/01/27 04:45:07;;;;;;;8.55;4.50;;;0.90;99.90;;;;;;4989230;28;20030;-62
2021/01/27 04:47:58;;;;;;;11.52;4.82;;;0.90;99.90;;;;;;4987926;28;20026;-57
2021/01/27 04:50:34;;;;;;;10.75;4.18;;;0.90;99.90;;;;;;4984326;28;20057;-62
2021/01/27 04:53:18;;;;;;;6.68;4.10;;;1.00;99.90;;;;;;4994352;28;20025;-60
2021/01/27 04:56:22;;;;;;;9.52;4.45;;;1.00;99.90;;;;;;4986342;28;20026;-60
2021/01/27 04:59:12;;;;;;;7.45;3.63;;;1.00;99.90;;;;;;4967338;28;20431;-61
2021/01/27 05:01:53;;;;;;;12.35;4.65;;;1.00;99.90;;;;;;4988822;28;20403;-62
2021/01/27 05:04:40;;;;;;;7.18;3.75;;;1.00;99.90;;;;;;5013507;28;20553;-62
2021/01/27 05:07:10;;;;;;;10.60;3.65;;;1.00;99.90;;;;;;4986108;28;20022;-61
2021/01/27 05:09:47;;;;;;;8.95;4.75;;;1.10;99.90;;;;;;4990529;28;20050;-62
2021/01/27 05:12:15;;;;;;;6.93;4.00;;;1.10;99.90;;;;;;4993523;28;20106;-61
2021/01/27 05:14:47;;;;;;;6.35;3.50;;;1.10;99.90;;;;;;4988219;28;20561;-61
2021/01/27 05:17:17;;;;;;;6.88;3.40;;;1.10;99.90;;;;;;4986143;28;20034;-63
2021/01/27 05:19:43;;;;;;;6.75;3.58;;;1.10;99.90;;;;;;4987220;28;20038;-61
2021/01/27 05:22:11;;;;;;;6.18;3.15;;;1.10;99.90;;;;;;4991520;28;20026;-61
2021/01/27 05:24:37;;;;;;;5.75;3.10;;;1.00;99.90;;;;;;4988865;28;21637;-60
2021/01/27 05:27:12;;;;;;;9.77;3.88;;;1.10;99.90;;;;;;4990661;28;20022;-62
2021/01/27 05:30:05;;;;;;;10.38;4.03;;;1.00;99.90;;;;;;4988686;28;20038;-62
2021/01/27 05:32:48;;;;;;;6.90;3.42;;;1.00;99.90;;;;;;4990156;28;20046;-61
2021/01/27 05:35:33;;;;;;;7.47;3.83;;;1.00;99.90;;;;;;4990734;28;20510;-57
2021/01/27 05:38:16;;;;;;;6.88;3.63;;;1.00;99.90;;;;;;4988473;28;20509;-60
2021/01/27 05:40:42;;;;;;;7.90;4.15;;;1.00;99.90;;;;;;4983034;28;20035;-60
2021/01/27 05:43:23;;;;;;;17.85;5.72;;;0.90;99.90;;;;;;4989880;28;20019;-59
2021/01/27 05:45:52;;;;;;;8.75;5.00;;;1.00;99.90;;;;;;4988564;28;20022;-61
2021/01/27 05:48:42;;;;;;;8.40;4.95;;;0.90;99.90;;;;;;4992889;28;20026;-61
2021/01/27 05:51:08;;;;;;;11.57;6.22;;;1.00;99.90;;;;;;4984529;28;20113;-60
2021/01/27 05:53:34;;;;;;;12.25;6.80;;;1.00;99.90;;;;;;5005442;28;20426;-60
2021/01/27 05:56:06;;;;;;;15.00;7.30;;;1.00;99.90;;;;;;4991246;28;20019;-59
2021/01/27 05:58:35;;;;;;;19.40;7.13;;;0.90;99.90;;;;;;4972282;28;20080;-62
2021/01/27 06:01:20;;;;;;;36.67;14.85;;;0.90;99.90;;;;;;4997318;28;20088;-61
2021/01/27 06:03:53;;;;;;;19.08;8.23;;;1.00;99.90;;;;;;4991277;28;20081;-60
2021/01/27 06:06:19;;;;;;;12.48;6.18;;;1.00;99.90;;;;;;4983697;28;20042;-63
2021/01/27 06:08:51;;;;;;;11.57;6.32;;;1.00;99.90;;;;;;4991989;28;20112;-62
2021/01/27 06:11:17;;;;;;;17.02;8.85;;;1.00;99.90;;;;;;4990149;28;20035;-60
2021/01/27 06:13:43;;;;;;;12.88;7.95;;;1.00;99.90;;;;;;4977112;28;20117;-62
2021/01/27 06:16:33;;;;;;;13.27;6.95;;;1.00;99.90;;;;;;5000956;28;20026;-62
2021/01/27 06:19:23;;;;;;;15.02;7.00;;;1.00;99.90;;;;;;4986473;28;22257;-62
2021/01/27 06:22:10;;;;;;;13.32;7.07;;;1.00;99.90;;;;;;4989845;28;20544;-61
2021/01/27 06:24:48;;;;;;;18.00;8.60;;;1.00;99.90;;;;;;4986263;28;20038;-63
2021/01/27 06:27:47;;;;;;;15.98;9.32;;;1.00;99.90;;;;;;4998508;28;20044;-61
2021/01/27 06:30:57;;;;;;;60.78;21.83;;;1.00;99.90;;;;;;4990193;28;20563;-62
2021/01/27 06:34:11;;;;;;;24.23;10.15;;;1.00;99.90;;;;;;4998416;28;20541;-62
2021/01/27 06:36:53;;;;;;;28.08;12.65;;;1.00;99.90;;;;;;4991437;28;20034;-62
2021/01/27 06:39:18;;;;;;;91.47;37.58;;;1.00;99.90;;;;;;4994666;28;20550;-62
2021/01/27 06:42:07;;;;;;;20.33;9.82;;;1.00;99.90;;;;;;4983155;28;20475;-61
2021/01/27 06:44:49;;;;;;;14.85;8.13;;;0.90;99.90;;;;;;4994086;28;20564;-62
2021/01/27 06:47:39;;;;;;;47.95;23.05;;;0.90;99.90;;;;;;4993587;28;20555;-60
2021/01/27 06:50:07;;;;;;;17.05;9.70;;;0.90;99.90;;;;;;4991128;28;20048;-62
2021/01/27 06:53:07;;;;;;;11.75;7.20;;;0.90;99.90;;;;;;4988223;28;20034;-62
2021/01/27 06:55:57;;;;;;;10.98;6.47;;;0.90;99.90;;;;;;4987710;28;20033;-62
2021/01/27 06:59:16;;;;;;;10.82;6.38;;;1.00;99.90;;;;;;4979791;28;20049;-62
2021/01/27 07:02:07;;;;;;;10.90;6.90;;;1.00;99.90;;;;;;4966514;28;20034;-59
2021/01/27 07:04:47;;;;;;;21.20;11.30;;;1.00;99.90;;;;;;4997212;28;20038;-61
2021/01/27 07:07:43;;;;;;;14.10;6.78;;;0.90;99.90;;;;;;4992789;28;20037;-59
2021/01/27 07:10:14;;;;;;;15.30;8.85;;;0.90;99.90;;;;;;4968499;28;20045;-59
2021/01/27 07:12:44;;;;;;;13.98;6.93;;;1.00;99.90;;;;;;4995996;28;20079;-61
2021/01/27 07:15:43;;;;;;;10.68;5.90;;;1.00;99.90;;;;;;4988699;28;20031;-62
2021/01/27 07:18:43;;;;;;;13.43;7.05;;;0.90;99.90;;;;;;4993108;28;20022;-60
2021/01/27 07:21:26;;;;;;;8.02;5.18;;;1.00;99.90;;;;;;4995409;28;20730;-61
2021/01/27 07:24:22;;;;;;;11.32;7.28;;;1.00;99.90;;;;;;5001556;28;20429;-62
2021/01/27 07:26:48;;;;;;;11.13;6.00;;;1.00;99.90;;;;;;4979284;28;20873;-59
2021/01/27 07:29:26;;;;;;;9.10;5.43;;;1.00;99.90;;;;;;4990987;28;20034;-62
2021/01/27 07:32:02;;;;;;;8.50;4.65;;;1.00;99.90;;;;;;4992759;28;20026;-62
2021/01/27 07:34:34;;;;;;;8.95;5.22;;;1.00;99.90;;;;;;5004257;28;20037;-62
2021/01/27 07:37:25;;;;;;;11.13;6.47;;;1.00;99.90;;;;;;4990848;28;20026;-60
2021/01/27 07:40:10;;;;;;;9.38;4.63;;;1.10;99.90;;;;;;4991524;28;20085;-62
2021/01/27 07:43:03;;;;;;;7.57;4.50;;;1.10;99.90;;;;;;4973892;28;20026;-61
2021/01/27 07:45:33;;;;;;;9.00;5.05;;;1.10;99.90;;;;;;5000664;28;20042;-61
2021/01/27 07:48:45;;;;;;;6.80;4.35;;;1.10;99.90;;;;;;4992872;28;20470;-62
2021/01/27 07:51:16;;;;;;;9.43;3.95;;;1.10;99.90;;;;;;4986081;28;20046;-61
2021/01/27 07:54:01;;;;;;;5.65;4.10;;;1.00;99.90;;;;;;4995487;28;20034;-59
2021/01/27 07:56:49;;;;;;;8.75;4.43;;;1.10;99.90;;;;;;4986728;28;20126;-59
2021/01/27 07:59:28;;;;;;;8.40;5.65;;;1.00;99.90;;;;;;4967612;28;20038;-61
2021/01/27 08:02:19;;;;;;;8.07;4.80;;;1.10;99.90;;;;;;4978224;28;20030;-61
2021/01/27 08:04:49;;;;;;;8.55;4.63;;;1.10;99.90;;;;;;4978463;28;20407;-60
2021/01/27 08:07:36;;;;;;;7.45;4.38;;;1.10;99.90;;;;;;4974326;28;20554;-58
2021/01/27 08:10:31;;;;;;;5.07;3.47;;;1.20;99.90;;;;;;4984619;28;20057;-61
2021/01/27 08:13:01;;;;;;;10.30;3.67;;;1.20;99.90;;;;;;4981809;28;20549;-64
2021/01/27 08:15:26;;;;;;;4.82;3.30;;;1.20;99.90;;;;;;4989228;28;20375;-62
2021/01/27 08:17:55;;;;;;;8.18;3.80;;;1.20;99.90;;;;;;4963117;28;20046;-64
2021/01/27 08:20:25;;;;;;;6.95;3.47;;;1.20;99.90;;;;;;4983093;28;20530;-61
2021/01/27 08:23:19;;;;;;;10.50;4.22;;;1.30;99.90;;;;;;4987633;28;20038;-62
2021/01/27 08:25:55;;;;;;;8.52;2.95;;;1.30;99.90;;;;;;4997160;28;20022;-61
2021/01/27 08:28:21;;;;;;;5.30;2.60;;;1.30;99.90;;;;;;4990915;28;20026;-63
2021/01/27 08:31:17;;;;;;;5.85;3.13;;;1.30;99.90;;;;;;4997241;28;20018;-62
2021/01/27 08:33:46;;;;;;;10.50;5.22;;;1.30;99.90;;;;;;4995893;28;20379;-60
2021/01/27 08:36:15;;;;;;;7.57;3.55;;;1.30;99.90;;;;;;4988725;28;20015;-59
2021/01/27 08:38:46;;;;;;;6.55;3.70;;;1.30;99.90;;;;;;4993316;28;20110;-59
2021/01/27 08:41:37;;;;;;;17.15;8.88;;;1.20;99.90;;;;;;4978476;28;20031;-62
2021/01/27 08:44:03;;;;;;;15.32;8.25;;;1.20;99.90;;;;;;4989100;28;20451;-61
2021/01/27 08:46:43;;;;;;;9.13;5.57;;;1.30;99.90;;;;;;4989115;28;20120;-61
2021/01/27 08:49:09;;;;;;;5.93;3.17;;;1.30;99.90;;;;;;4988906;28;20042;-61
2021/01/27 08:51:50;;;;;;;12.20;3.95;;;1.30;99.90;;;;;;4972990;28;20080;-61
2021/01/27 08:54:34;;;;;;;3.67;2.40;;;1.30;99.90;;;;;;4986416;28;20026;-62
2021/01/27 08:57:35;;;;;;;7.43;3.28;;;1.30;99.90;;;;;;4973504;28;20472;-62
2021/01/27 09:00:13;;;;;;;7.05;2.60;;;1.30;99.90;;;;;;4972789;28;20550;-62
2021/01/27 09:02:45;;;;;;;8.38;3.92;;;1.40;99.90;;;;;;4984709;28;20020;-62
2021/01/27 09:05:33;;;;;;;5.70;3.47;;;1.40;99.90;;;;;;4986687;28;20109;-60
2021/01/27 09:08:28;;;;;;;7.43;3.42;;;1.30;99.90;;;;;;4982122;28;20552;-62
2021/01/27 09:11:08;;;;;;;5.00;3.15;;;1.30;99.90;;;;;;4986098;28;20026;-61
2021/01/27 09:13:41;;;;;;;5.55;3.05;;;1.30;99.90;;;;;;4980168;28;20041;-61
2021/01/27 09:16:21;;;;;;;5.03;2.28;;;1.30;99.90;;;;;;4990545;28;20057;-59
2021/01/27 09:18:59;;;;;;;4.55;2.95;;;1.20;99.90;;;;;;4972792;28;20607;-61
2021/01/27 09:21:25;;;;;;;8.85;3.40;;;1.20;99.90;;;;;;4997340;28;20026;-61
2021/01/27 09:24:23;;;;;;;5.22;3.22;;;1.30;99.90;;;;;;4985875;28;20372;-61
2021/01/27 09:26:50;;;;;;;12.15;5.22;;;1.30;99.90;;;;;;4984466;28;20483;-60
2021/01/27 09:29:29;;;;;;;6.85;3.92;;;1.40;99.90;;;;;;4985389;28;20603;-54
2021/01/27 09:31:56;;;;;;;4.30;2.55;;;1.40;99.90;;;;;;4989641;28;20022;-56
2021/01/27 09:34:30;;;;;;;4.80;2.70;;;1.40;99.90;;;;;;5005394;28;20045;-61
2021/01/27 09:37:08;;;;;;;5.65;2.65;;;1.40;99.90;;;;;;4989275;28;20459;-61
2021/01/27 09:39:36;;;;;;;6.03;2.30;;;1.40;99.90;;;;;;4995532;28;20034;-62
2021/01/27 09:42:18;;;;;;;3.15;2.20;;;1.50;99.90;;;;;;4987485;28;20034;-59
2021/01/27 09:44:47;;;;;;;3.65;2.47;;;1.60;99.90;;;;;;4975389;28;20022;-62
2021/01/27 09:47:14;;;;;;;10.25;2.70;;;1.80;99.90;;;;;;4981405;28;20029;-62
2021/01/27 09:49:54;;;;;;;4.07;2.40;;;1.70;99.90;;;;;;4992557;28;20030;-60
2021/01/27 09:52:21;;;;;;;6.53;2.67;;;1.70;99.90;;;;;;4991018;28;20045;-61
2021/01/27 09:55:08;;;;;;;6.00;2.63;;;1.70;99.90;;;;;;4985992;28;20030;-60
2021/01/27 09:57:36;;;;;;;4.53;2.75;;;1.70;99.90;;;;;;4973257;28;20030;-59
2021/01/27 10:00:05;;;;;;;5.05;2.97;;;1.80;99.90;;;;;;4978862;28;20125;-61
2021/01/27 10:02:33;;;;;;;5.95;2.78;;;1.80;99.90;;;;;;4990239;28;20093;-55
2021/01/27 10:05:00;;;;;;;5.00;2.50;;;1.80;99.90;;;;;;4984880;28;20455;-58
2021/01/27 10:07:34;;;;;;;5.43;2.70;;;1.90;99.90;;;;;;4987593;28;20717;-57
2021/01/27 10:10:15;;;;;;;2.50;1.90;;;1.90;99.90;;;;;;4992084;28;20467;-59
2021/01/27 10:12:41;;;;;;;3.03;1.80;;;1.90;99.90;;;;;;4984647;28;20048;-62
2021/01/27 10:15:30;;;;;;;2.47;1.67;;;1.90;99.90;;;;;;4994642;28;20030;-61
2021/01/27 10:18:22;;;;;;;4.03;2.08;;;2.00;99.90;;;;;;4976381;28;20490;-60
2021/01/27 10:20:48;;;;;;;3.90;2.50;;;1.90;99.90;;;;;;4978971;28;20134;-59
2021/01/27 10:23:50;;;;;;;7.25;2.92;;;1.90;99.90;;;;;;4973931;28;20026;-58
2021/01/27 10:26:40;;;;;;;3.80;2.40;;;1.90;99.90;;;;;;4984467;28;20105;-57
2021/01/27 10:29:36;;;;;;;3.08;2.13;;;2.00;99.90;;;;;;4994283;28;20095;-57
2021/01/27 10:32:20;;;;;;;6.32;2.95;;;2.00;99.90;;;;;;4995286;28;20042;-62
2021/01/27 10:34:48;;;;;;;4.72;2.45;;;2.00;99.90;;;;;;4977457;28;20120;-58
2021/01/27 10:37:44;;;;;;;3.58;2.75;;;2.10;99.90;;;;;;4995816;28;20053;-60
2021/01/27 10:40:20;;;;;;;5.10;3.05;;;2.20;99.90;;;;;;4991729;28;20022;-59
2021/01/27 10:42:58;;;;;;;4.05;2.22;;;2.20;99.90;;;;;;4981962;28;20200;-61
2021/01/27 10:45:27;;;;;;;3.13;2.42;;;2.10;99.90;;;;;;4983806;28;20031;-60
2021/01/27 10:48:09;;;;;;;6.47;2.35;;;2.10;99.90;;;;;;4987159;28;20116;-59
2021/01/27 10:50:39;;;;;;;5.03;3.10;;;2.10;99.90;;;;;;4983967;28;20076;-58
2021/01/27 10:53:05;;;;;;;3.60;2.30;;;2.20;99.90;;;;;;4989076;28;20030;-58
2021/01/27 10:55:36;;;;;;;22.13;9.18;;;2.20;99.90;;;;;;4986529;28;20045;-59
2021/01/27 10:58:16;;;;;;;12.93;6.25;;;2.20;99.90;;;;;;4995553;28;20022;-58
2021/01/27 11:00:42;;;;;;;5.05;2.55;;;2.30;99.90;;;;;;4961082;28;20046;-59
2021/01/27 11:03:10;;;;;;;5.88;2.70;;;2.30;99.90;;;;;;5000128;28;20026;-60
2021/01/27 11:05:35;;;;;;;9.20;4.13;;;2.30;99.90;;;;;;4996365;28;20038;-61
2021/01/27 11:08:04;;;;;;;4.78;2.72;;;2.30;99.90;;;;;;4992011;28;20026;-60
2021/01/27 11:10:30;;;;;;;4.97;2.70;;;2.30;99.90;;;;;;4992163;28;20069;-61
2021/01/27 11:12:56;;;;;;;11.32;3.75;;;2.40;99.90;;;;;;4988658;28;20109;-61
2021/01/27 11:15:22;;;;;;;11.45;5.75;;;2.40;99.90;;;;;;4994972;28;20033;-61
2021/01/27 11:17:49;;;;;;;5.47;2.78;;;2.50;99.90;;;;;;4997838;28;20031;-61
2021/01/27 11:20:19;;;;;;;8.05;2.80;;;2.50;99.90;;;;;;4993531;28;20109;-60
2021/01/27 11:22:45;;;;;;;7.28;1.85;;;2.60;99.90;;;;;;4991234;28;20423;-61
2021/01/27 11:25:14;;;;;;;9.88;2.50;;;2.60;99.90;;;;;;4986372;28;20447;-61
2021/01/27 11:27:39;;;;;;;6.10;2.45;;;2.60;99.90;;;;;;4990527;28;20087;-61
2021/01/27 11:30:05;;;;;;;6.45;3.72;;;2.50;99.90;;;;;;4987251;28;20530;-58
2021/01/27 11:32:31;;;;;;;10.13;4.82;;;2.50;99.90;;;;;;4988853;28;20177;-60
2021/01/27 11:34:56;;;;;;;4.60;2.70;;;2.70;99.90;;;;;;4981821;28;20081;-59
2021/01/27 11:37:22;;;;;;;5.13;3.15;;;2.70;99.90;;;;;;4982187;28;20029;-62
2021/01/27 11:39:47;;;;;;;7.65;2.63;;;2.70;99.90;;;;;;4989258;28;20041;-59
2021/01/27 11:42:13;;;;;;;5.30;2.55;;;2.70;99.90;;;;;;4989553;28;20029;-60
2021/01/27 11:44:39;;;;;;;3.67;2.38;;;2.60;99.90;;;;;;4989565;28;20172;-60
2021/01/27 11:47:04;;;;;;;5.05;3.38;;;2.70;99.90;;;;;;4957308;28;20050;-61
2021/01/27 11:49:30;;;;;;;11.85;3.05;;;2.60;99.90;;;;;;4988863;28;20058;-61
2021/01/27 11:51:56;;;;;;;13.55;6.18;;;2.60;99.90;;;;;;4990051;28;20113;-60
2021/01/27 11:54:23;;;;;;;15.90;8.63;;;2.60;99.90;;;;;;4988389;28;20023;-60
2021/01/27 11:56:48;;;;;;;4.40;2.50;;;2.60;99.90;;;;;;4989530;28;20025;-58
2021/01/27 11:59:14;;;;;;;6.65;2.92;;;2.60;99.90;;;;;;4967739;28;20022;-61
2021/01/27 12:01:39;;;;;;;5.28;2.40;;;2.60;99.90;;;;;;4974633;28;20121;-60
2021/01/27 12:04:05;;;;;;;3.25;2.45;;;2.70;99.90;;;;;;4978816;28;20030;-61
2021/01/27 12:06:31;;;;;;;7.47;2.90;;;2.70;99.90;;;;;;4977619;28;20053;-61
2021/01/27 12:08:56;;;;;;;5.63;3.40;;;2.70;99.90;;;;;;4986676;28;20089;-62
2021/01/27 12:11:22;;;;;;;6.75;3.53;;;2.70;99.90;;;;;;4988463;28;20094;-62
2021/01/27 12:13:48;;;;;;;3.05;1.98;;;2.80;99.90;;;;;;4986925;28;20099;-61
2021/01/27 12:16:14;;;;;;;2.83;2.00;;;2.70;99.90;;;;;;4976625;28;20048;-60
2021/01/27 12:18:42;;;;;;;5.07;2.35;;;2.70;99.90;;;;;;4979155;28;20061;-61
2021/01/27 12:21:08;;;;;;;4.15;2.53;;;2.80;99.90;;;;;;4973670;28;20030;-60
2021/01/27 12:23:34;;;;;;;5.07;2.38;;;2.80;99.90;;;;;;4985563;28;20034;-61
2021/01/27 12:25:59;;;;;;;5.65;2.33;;;2.90;99.90;;;;;;4982382;28;20042;-59
2021/01/27 12:28:25;;;;;;;5.38;2.03;;;2.80;99.90;;;;;;4992081;28;20034;-61
2021/01/27 12:30:50;;;;;;;3.63;2.15;;;2.80;99.90;;;;;;4990904;28;20042;-61
2021/01/27 12:33:16;;;;;;;3.22;1.92;;;2.80;99.90;;;;;;4992796;28;20109;-59
2021/01/27 12:35:42;;;;;;;4.05;2.83;;;2.80;99.90;;;;;;4988265;28;20502;-62
2021/01/27 12:38:07;;;;;;;3.00;2.00;;;2.80;99.90;;;;;;4989636;28;20157;-62
2021/01/27 12:40:33;;;;;;;2.50;1.75;;;2.90;99.90;;;;;;4990772;28;20431;-58
2021/01/27 12:42:59;;;;;;;2.88;1.90;;;2.90;99.90;;;;;;4990287;28;20488;-60
2021/01/27 12:45:27;;;;;;;3.45;2.30;;;2.90;99.90;;;;;;4990155;28;20034;-58
2021/01/27 12:47:53;;;;;;;2.97;2.20;;;2.90;99.90;;;;;;4992316;28;20026;-61
2021/01/27 12:50:20;;;;;;;2.60;1.73;;;3.00;99.90;;;;;;4993137;28;20559;-61
2021/01/27 12:52:46;;;;;;;3.38;2.13;;;3.00;99.90;;;;;;4991924;28;20044;-62
2021/01/27 12:55:14;;;;;;;2.33;1.70;;;3.00;99.90;;;;;;5003948;28;20034;-62
2021/01/27 12:57:45;;;;;;;2.88;2.30;;;3.00;99.90;;;;;;4993666;28;20088;-63
2021/01/27 13:00:23;;;;;;;4.70;2.00;;;3.10;99.90;;;;;;4958298;28;20481;-60
2021/01/27 13:02:51;;;;;;;2.65;1.77;;;3.00;99.90;;;;;;4994975;28;20544;-61
2021/01/27 13:05:18;;;;;;;3.50;2.33;;;3.00;99.90;;;;;;4988247;28;20046;-61
2021/01/27 13:07:43;;;;;;;10.65;2.70;;;3.00;99.90;;;;;;4998520;28;20525;-59
2021/01/27 13:10:09;;;;;;;10.10;2.88;;;3.10;99.90;;;;;;4992730;28;20118;-60
2021/01/27 13:12:36;;;;;;;55.33;4.43;;;3.00;99.90;;;;;;4987864;28;20092;-61
2021/01/27 13:15:05;;;;;;;5.38;2.75;;;2.90;99.90;;;;;;4985820;28;20041;-62
2021/01/27 13:17:30;;;;;;;69.00;5.13;;;3.00;99.90;;;;;;4990812;28;20043;-61
2021/01/27 13:19:56;;;;;;;12.05;3.15;;;3.00;99.90;;;;;;4996451;28;20041;-61
2021/01/27 13:22:21;;;;;;;4.85;2.97;;;2.90;99.90;;;;;;5006094;28;20046;-60
2021/01/27 13:24:47;;;;;;;6.10;2.70;;;3.00;99.90;;;;;;4991849;28;20026;-62
2021/01/27 13:27:12;;;;;;;7.10;2.88;;;3.00;99.90;;;;;;4992712;28;20034;-62
2021/01/27 13:29:38;;;;;;;4.63;2.60;;;3.00;99.90;;;;;;4990477;28;20052;-63